Time;durP1;ratioP1;P1;durP2;ratioP2;P2;SDS_P1;SDS_P2;PMS_P1;PMS_P2;Temp;Humidity;BMP_temperature;BMP_pressure;BME280_temperature;BME280_humidity;BME280_pressure;Samples;Min_cycle;Max_cycle;Signal;HPM_P1;HPM_P2
2022/08/09 00:00:18;;;;;;;9.30;5.03;;;;;;;;;;6149379;23;20064;-63
2022/08/09 00:02:46;;;;;;;;;;;;;;;;;;6149396;23;20526;-63
2022/08/09 00:05:20;;;;;;;8.15;4.15;;;;;;;;;;6150146;23;19921;-62
2022/08/09 00:08:09;;;;;;;7.90;4.85;;;;;;;;;;6149096;23;20101;-62
2022/08/09 00:10:59;;;;;;;8.77;5.30;;;;;;;;;;6148394;23;20013;-63
2022/08/09 00:13:32;;;;;;;8.65;5.43;;;;;;;;;;6149782;23;20401;-62
2022/08/09 00:16:07;;;;;;;12.52;5.50;;;;;;;;;;6125280;23;20028;-62
2022/08/09 00:18:39;;;;;;;10.45;5.47;;;;;;;;;;6149185;23;20525;-63
2022/08/09 00:21:14;;;;;;;10.52;5.60;;;;;;;;;;6149853;23;20088;-63
2022/08/09 00:23:42;;;;;;;11.25;5.75;;;;;;;;;;6149285;23;20030;-63
2022/08/09 00:26:26;;;;;;;8.10;5.78;;;;;;;;;;6149456;23;20056;-62
2022/08/09 00:29:01;;;;;;;8.57;5.88;;;;;;;;;;6150329;23;20025;-63
2022/08/09 00:31:28;;;;;;;10.82;5.97;;;;;;;;;;6151133;23;20021;-62
2022/08/09 00:34:15;;;;;;;9.15;5.78;;;;;;;;;;6149953;23;20106;-63
2022/08/09 00:36:59;;;;;;;7.18;4.18;;;;;;;;;;6149774;23;20026;-63
2022/08/09 00:39:26;;;;;;;6.63;3.30;;;;;;;;;;6149277;23;20022;-59
2022/08/09 00:42:20;;;;;;;6.70;4.40;;;;;;;;;;6149692;23;20021;-59
2022/08/09 00:45:08;;;;;;;7.28;4.43;;;;;;;;;;6149508;23;20021;-60
2022/08/09 00:47:46;;;;;;;6.00;4.50;;;;;;;;;;6148973;23;20386;-60
2022/08/09 00:50:14;;;;;;;7.00;4.38;;;;;;;;;;6147321;23;20030;-60
2022/08/09 00:52:41;;;;;;;6.85;4.00;;;;;;;;;;6149074;23;20022;-64
2022/08/09 00:55:16;;;;;;;11.82;4.97;;;;;;;;;;6149007;23;20384;-49
2022/08/09 00:58:03;;;;;;;10.82;4.65;;;;;;;;;;6149966;23;20017;-58
2022/08/09 01:00:50;;;;;;;11.18;5.53;;;;;;;;;;6150049;23;20108;-58
2022/08/09 01:03:29;;;;;;;6.32;5.00;;;;;;;;;;6150148;23;20081;-58
2022/08/09 01:06:15;;;;;;;7.32;5.20;;;;;;;;;;6151053;23;20026;-58
2022/08/09 01:08:50;;;;;;;8.32;6.13;;;;;;;;;;6150556;23;20151;-57
2022/08/09 01:11:46;;;;;;;6.20;5.60;;;;;;;;;;6150089;23;20359;-57
2022/08/09 01:14:54;;;;;;;8.25;5.50;;;;;;;;;;6150110;23;20104;-58
2022/08/09 01:17:45;;;;;;;10.25;5.22;;;;;;;;;;6109857;23;20036;-47
2022/08/09 01:20:28;;;;;;;10.73;5.70;;;;;;;;;;6149785;23;20049;-47
2022/08/09 01:23:01;;;;;;;11.35;5.80;;;;;;;;;;6149885;23;20025;-45
2022/08/09 01:25:42;;;;;;;11.95;5.72;;;;;;;;;;6149748;23;20021;-45
2022/08/09 01:28:19;;;;;;;7.43;5.18;;;;;;;;;;6149571;23;20345;-44
2022/08/09 01:30:49;;;;;;;8.15;4.45;;;;;;;;;;6148454;23;20022;-59
2022/08/09 01:33:27;;;;;;;4.30;3.72;;;;;;;;;;6148574;23;20029;-62
2022/08/09 01:36:13;;;;;;;4.10;3.60;;;;;;;;;;6149017;23;20476;-63
2022/08/09 01:38:56;;;;;;;7.90;4.22;;;;;;;;;;6148955;23;20025;-63
2022/08/09 01:41:30;;;;;;;6.38;4.10;;;;;;;;;;6151152;23;20025;-62
2022/08/09 01:44:22;;;;;;;4.60;3.50;;;;;;;;;;6151025;23;20077;-62
2022/08/09 01:46:50;;;;;;;9.40;4.20;;;;;;;;;;6150823;23;20053;-63
2022/08/09 01:49:27;;;;;;;5.30;4.10;;;;;;;;;;6151228;23;20353;-58
2022/08/09 01:52:06;;;;;;;5.80;4.47;;;;;;;;;;6151974;23;20025;-55
2022/08/09 01:54:46;;;;;;;8.40;5.40;;;;;;;;;;6150237;23;20482;-55
2022/08/09 01:57:24;;;;;;;7.50;4.75;;;;;;;;;;6151876;23;20056;-55
2022/08/09 02:00:07;;;;;;;6.25;4.75;;;;;;;;;;6151465;23;20064;-55
2022/08/09 02:02:54;;;;;;;9.30;5.13;;;;;;;;;;6150311;23;20017;-54
2022/08/09 02:05:30;;;;;;;9.60;5.40;;;;;;;;;;6151660;23;20029;-56
2022/08/09 02:08:19;;;;;;;6.93;5.20;;;;;;;;;;6151602;23;20428;-47
2022/08/09 02:11:14;;;;;;;9.77;5.65;;;;;;;;;;6151756;23;20336;-48
2022/08/09 02:13:44;;;;;;;10.70;5.72;;;;;;;;;;6151839;23;20420;-46
2022/08/09 02:16:35;;;;;;;7.68;5.32;;;;;;;;;;6151370;23;20040;-45
2022/08/09 02:19:22;;;;;;;;;;;;;;;;;;6151640;23;20026;-44
2022/08/09 02:22:09;;;;;;;13.88;5.18;;;;;;;;;;6151131;23;19927;-44
2022/08/09 02:24:37;;;;;;;12.43;5.85;;;;;;;;;;6148656;23;20537;-46
2022/08/09 02:27:22;;;;;;;9.35;6.03;;;;;;;;;;6151221;23;20210;-46
2022/08/09 02:30:19;;;;;;;7.07;5.32;;;;;;;;;;6150102;23;20026;-44
2022/08/09 02:33:02;;;;;;;10.82;4.10;;;;;;;;;;6150623;23;20467;-44
2022/08/09 02:35:46;;;;;;;9.18;4.05;;;;;;;;;;6150681;23;20032;-48
2022/08/09 02:38:31;;;;;;;8.20;5.00;;;;;;;;;;6151482;23;20661;-46
2022/08/09 02:41:12;;;;;;;6.43;5.22;;;;;;;;;;6150100;23;20029;-44
2022/08/09 02:43:47;;;;;;;6.90;4.15;;;;;;;;;;6151312;23;20025;-62
2022/08/09 02:46:23;;;;;;;4.32;3.72;;;;;;;;;;6151449;23;20025;-61
2022/08/09 02:49:02;;;;;;;6.90;3.90;;;;;;;;;;6149878;23;20403;-60
2022/08/09 02:51:32;;;;;;;4.55;3.60;;;;;;;;;;6150911;23;20027;-60
2022/08/09 02:54:10;;;;;;;7.78;4.30;;;;;;;;;;6150239;23;20388;-61
2022/08/09 02:56:41;;;;;;;6.65;4.25;;;;;;;;;;6151777;23;20021;-61
2022/08/09 02:59:21;;;;;;;10.68;5.53;;;;;;;;;;6151759;23;20026;-60
2022/08/09 03:02:04;;;;;;;10.15;4.70;;;;;;;;;;6150278;23;20021;-61
2022/08/09 03:04:43;;;;;;;6.22;4.72;;;;;;;;;;6151353;23;20036;-57
2022/08/09 03:07:12;;;;;;;7.53;5.47;;;;;;;;;;6151489;23;20100;-55
2022/08/09 03:09:47;;;;;;;8.20;4.85;;;;;;;;;;6151349;23;20022;-57
2022/08/09 03:12:23;;;;;;;9.13;4.75;;;;;;;;;;6151155;23;20022;-57
2022/08/09 03:14:57;;;;;;;13.18;5.47;;;;;;;;;;6150248;23;20022;-56
2022/08/09 03:17:25;;;;;;;12.07;5.55;;;;;;;;;;6149678;23;20261;-56
2022/08/09 03:19:54;;;;;;;8.18;5.35;;;;;;;;;;6149650;23;20340;-58
2022/08/09 03:22:39;;;;;;;10.43;5.20;;;;;;;;;;6149897;23;20067;-62
2022/08/09 03:25:08;;;;;;;7.53;5.55;;;;;;;;;;6151419;23;20051;-58
2022/08/09 03:28:13;;;;;;;8.00;5.05;;;;;;;;;;6150182;23;20021;-59
2022/08/09 03:30:45;;;;;;;8.30;5.32;;;;;;;;;;6150117;23;20021;-59
2022/08/09 03:33:19;;;;;;;10.85;5.80;;;;;;;;;;6150610;23;20452;-58
2022/08/09 03:35:59;;;;;;;8.85;5.90;;;;;;;;;;6150347;23;20411;-58
2022/08/09 03:38:42;;;;;;;9.57;5.60;;;;;;;;;;6150861;23;20025;-55
2022/08/09 03:41:11;;;;;;;7.70;5.38;;;;;;;;;;6151024;23;20030;-62
2022/08/09 03:43:47;;;;;;;12.57;5.57;;;;;;;;;;6151166;23;20055;-61
2022/08/09 03:46:35;;;;;;;14.80;6.13;;;;;;;;;;6150612;23;20102;-60
2022/08/09 03:49:09;;;;;;;8.52;5.75;;;;;;;;;;6148942;23;20017;-61
2022/08/09 03:51:41;;;;;;;8.40;5.53;;;;;;;;;;6149732;23;20080;-60
2022/08/09 03:54:25;;;;;;;12.93;5.60;;;;;;;;;;6150329;23;20025;-60
2022/08/09 03:57:02;;;;;;;7.53;5.63;;;;;;;;;;6150196;23;20105;-52
2022/08/09 03:59:40;;;;;;;10.85;5.03;;;;;;;;;;6149607;23;20026;-60
2022/08/09 04:02:22;;;;;;;7.38;5.13;;;;;;;;;;6150156;23;20018;-60
2022/08/09 04:04:55;;;;;;;8.93;5.63;;;;;;;;;;6150155;23;20017;-60
2022/08/09 04:07:53;;;;;;;7.20;5.03;;;;;;;;;;6149551;23;20022;-61
2022/08/09 04:10:24;;;;;;;8.02;5.25;;;;;;;;;;6149629;23;20025;-60
2022/08/09 04:13:08;;;;;;;6.72;4.80;;;;;;;;;;6148543;23;20080;-59
2022/08/09 04:15:38;;;;;;;11.02;5.40;;;;;;;;;;6147936;23;20033;-50
2022/08/09 04:18:32;;;;;;;6.00;4.68;;;;;;;;;;6149025;23;20097;-60
2022/08/09 04:20:59;;;;;;;7.43;4.22;;;;;;;;;;6150104;23;20026;-60
2022/08/09 04:23:33;;;;;;;8.95;4.45;;;;;;;;;;6150839;23;20533;-60
2022/08/09 04:26:00;;;;;;;6.90;4.40;;;;;;;;;;6149611;23;20625;-60
2022/08/09 04:28:27;;;;;;;8.38;4.55;;;;;;;;;;6149075;23;20053;-61
2022/08/09 04:31:08;;;;;;;4.80;4.20;;;;;;;;;;6149996;23;20025;-60
2022/08/09 04:33:41;;;;;;;6.68;2.50;;;;;;;;;;6150492;23;20021;-60
2022/08/09 04:36:36;;;;;;;3.10;2.63;;;;;;;;;;6149487;23;20031;-63
2022/08/09 04:39:16;;;;;;;3.63;2.78;;;;;;;;;;6149752;23;20220;-45
2022/08/09 04:41:50;;;;;;;4.72;3.10;;;;;;;;;;6148659;23;20028;-46
2022/08/09 04:44:17;;;;;;;4.65;3.05;;;;;;;;;;6149147;23;20026;-46
2022/08/09 04:46:44;;;;;;;3.22;2.65;;;;;;;;;;6149457;23;20088;-48
2022/08/09 04:49:31;;;;;;;3.78;3.20;;;;;;;;;;6147478;23;20476;-47
2022/08/09 04:52:19;;;;;;;5.72;3.47;;;;;;;;;;6148099;23;20124;-62
2022/08/09 04:54:58;;;;;;;5.88;3.28;;;;;;;;;;6149271;23;20026;-61
2022/08/09 04:57:38;;;;;;;3.83;3.13;;;;;;;;;;6150242;23;20100;-61
2022/08/09 05:00:28;;;;;;;8.43;3.38;;;;;;;;;;6148540;23;20028;-62
2022/08/09 05:03:01;;;;;;;4.63;3.22;;;;;;;;;;6150051;23;20100;-62
2022/08/09 05:05:55;;;;;;;5.28;3.30;;;;;;;;;;6149391;23;20348;-62
2022/08/09 05:08:31;;;;;;;4.88;3.22;;;;;;;;;;6149333;23;20022;-62
2022/08/09 05:11:14;;;;;;;6.35;3.25;;;;;;;;;;6149610;23;20489;-46
2022/08/09 05:13:41;;;;;;;;;;;;;;;;;;6149573;23;20022;-60
2022/08/09 05:16:16;;;;;;;4.72;3.17;;;;;;;;;;6150392;23;19920;-61
2022/08/09 05:18:44;;;;;;;4.25;3.22;;;;;;;;;;6151090;23;20032;-61
2022/08/09 05:21:26;;;;;;;4.15;3.20;;;;;;;;;;6127414;23;20018;-60
2022/08/09 05:24:13;;;;;;;6.57;4.07;;;;;;;;;;6151980;23;20076;-61
2022/08/09 05:26:40;;;;;;;8.18;5.28;;;;;;;;;;6151366;23;20021;-60
2022/08/09 05:29:20;;;;;;;5.75;4.53;;;;;;;;;;6150466;23;20080;-62
2022/08/09 05:31:51;;;;;;;12.88;4.55;;;;;;;;;;6151540;23;20028;-62
2022/08/09 05:34:30;;;;;;;6.88;4.47;;;;;;;;;;6151245;23;20068;-57
2022/08/09 05:37:06;;;;;;;9.35;5.13;;;;;;;;;;6149976;23;20029;-56
2022/08/09 05:39:41;;;;;;;9.60;5.07;;;;;;;;;;6149844;23;20526;-57
2022/08/09 05:42:12;;;;;;;10.02;4.90;;;;;;;;;;6151052;23;20415;-57
2022/08/09 05:44:48;;;;;;;6.30;3.90;;;;;;;;;;6151444;23;20022;-55
2022/08/09 05:47:24;;;;;;;4.28;3.88;;;;;;;;;;6152059;23;20088;-58
2022/08/09 05:49:53;;;;;;;6.53;4.43;;;;;;;;;;6148756;23;20025;-61
2022/08/09 05:52:41;;;;;;;6.60;4.28;;;;;;;;;;6151340;23;20104;-62
2022/08/09 05:55:20;;;;;;;7.95;5.20;;;;;;;;;;6149706;23;20025;-63
2022/08/09 05:57:50;;;;;;;11.93;5.70;;;;;;;;;;6150816;23;20018;-63
2022/08/09 06:00:26;;;;;;;6.00;4.60;;;;;;;;;;6150007;23;20084;-63
2022/08/09 06:02:56;;;;;;;8.18;5.40;;;;;;;;;;6150930;23;20196;-63
2022/08/09 06:05:28;;;;;;;13.98;5.60;;;;;;;;;;6150318;23;20021;-63
2022/08/09 06:08:22;;;;;;;9.73;5.85;;;;;;;;;;6151475;23;20021;-62
2022/08/09 06:10:54;;;;;;;9.48;5.32;;;;;;;;;;6149625;23;20403;-62
2022/08/09 06:13:42;;;;;;;7.03;5.35;;;;;;;;;;6150339;23;20025;-61
2022/08/09 06:16:11;;;;;;;8.13;5.13;;;;;;;;;;6151940;23;20026;-62
2022/08/09 06:18:46;;;;;;;9.13;5.38;;;;;;;;;;6150989;23;20088;-62
2022/08/09 06:21:13;;;;;;;7.22;4.72;;;;;;;;;;6148580;23;20029;-62
2022/08/09 17:01:28;;;;;;;2.58;1.70;;;;;;;;;;5827172;22;8299330;-44
2022/08/09 17:04:03;;;;;;;2.60;1.85;;;;;;;;;;6177214;23;20025;-47
2022/08/09 17:06:32;;;;;;;2.22;1.55;;;;;;;;;;6177664;23;20028;-50
2022/08/09 17:09:19;;;;;;;2.78;1.45;;;;;;;;;;6177574;23;20106;-61
2022/08/09 17:12:12;;;;;;;2.00;1.60;;;;;;;;;;6177817;23;20044;-58
2022/08/09 17:14:40;;;;;;;3.05;1.80;;;;;;;;;;6178387;23;20029;-58
2022/08/09 17:17:23;;;;;;;2.08;1.70;;;;;;;;;;6177565;23;20526;-57
2022/08/09 17:19:53;;;;;;;1.75;1.48;;;;;;;;;;6176891;23;20035;-59
2022/08/09 17:22:47;;;;;;;3.65;1.80;;;;;;;;;;6173532;23;20076;-59
2022/08/09 17:25:19;;;;;;;2.58;1.42;;;;;;;;;;6178330;23;20029;-58
2022/08/09 17:28:05;;;;;;;2.00;1.80;;;;;;;;;;6178265;23;20029;-48
2022/08/09 17:30:33;;;;;;;1.60;1.50;;;;;;;;;;6178583;23;20021;-54
2022/08/09 17:33:15;;;;;;;2.67;1.85;;;;;;;;;;6176823;23;20032;-56
2022/08/09 17:35:49;;;;;;;2.75;1.80;;;;;;;;;;6173208;23;20032;-57
2022/08/09 17:38:22;;;;;;;2.85;2.30;;;;;;;;;;6176893;23;20029;-58
2022/08/09 17:41:00;;;;;;;3.30;1.88;;;;;;;;;;6176435;23;20024;-55
2022/08/09 17:43:35;;;;;;;5.28;2.03;;;;;;;;;;6176267;23;20118;-58
2022/08/09 17:46:05;;;;;;;4.15;2.42;;;;;;;;;;6174976;23;20021;-68
2022/08/09 17:48:36;;;;;;;3.63;2.25;;;;;;;;;;6175852;23;20035;-67
2022/08/09 17:51:19;;;;;;;5.18;2.30;;;;;;;;;;6176574;23;20542;-65
2022/08/09 17:53:46;;;;;;;;;;;;;;;;;;6176600;23;20036;-68
2022/08/09 17:56:22;;;;;;;5.20;2.40;;;;;;;;;;6176258;23;20338;-67
2022/08/09 17:58:55;;;;;;;5.82;2.60;;;;;;;;;;6175252;23;20039;-68
2022/08/09 18:01:49;;;;;;;8.80;2.58;;;;;;;;;;6147750;23;20029;-67
2022/08/09 18:04:41;;;;;;;7.32;2.75;;;;;;;;;;6146793;23;20104;-62
2022/08/09 18:07:15;;;;;;;6.65;3.05;;;;;;;;;;6145519;23;20056;-59
2022/08/09 18:09:49;;;;;;;5.60;2.72;;;;;;;;;;6147235;23;20021;-58
2022/08/09 18:12:35;;;;;;;9.18;3.20;;;;;;;;;;6147155;23;20025;-58
2022/08/09 18:15:22;;;;;;;5.30;2.67;;;;;;;;;;6146333;23;20141;-57
2022/08/09 18:18:16;;;;;;;6.50;2.83;;;;;;;;;;6145549;23;20509;-59
2022/08/09 18:20:52;;;;;;;7.97;2.78;;;;;;;;;;6146507;23;20049;-67
2022/08/09 18:23:45;;;;;;;9.55;3.42;;;;;;;;;;6145319;23;20029;-61
2022/08/09 18:26:33;;;;;;;4.57;2.70;;;;;;;;;;6145909;23;20021;-62
2022/08/09 18:29:15;;;;;;;7.25;3.28;;;;;;;;;;6146701;23;20049;-62
2022/08/09 18:32:03;;;;;;;6.60;3.25;;;;;;;;;;6145837;23;20021;-61
2022/08/09 18:34:37;;;;;;;6.32;2.88;;;;;;;;;;6147437;23;20080;-61
2022/08/09 18:37:08;;;;;;;10.38;3.78;;;;;;;;;;6147590;23;20025;-61
2022/08/09 18:39:55;;;;;;;3.60;2.83;;;;;;;;;;6146440;23;20124;-56
2022/08/09 18:42:30;;;;;;;5.22;3.17;;;;;;;;;;6146783;23;20133;-66
2022/08/09 18:45:05;;;;;;;7.95;3.03;;;;;;;;;;6147483;23;20040;-65
2022/08/09 18:48:00;;;;;;;6.13;2.72;;;;;;;;;;6143642;23;20049;-66
2022/08/09 18:50:35;;;;;;;9.45;2.90;;;;;;;;;;6147577;23;20538;-66
2022/08/09 18:53:21;;;;;;;8.32;3.50;;;;;;;;;;6146672;23;20068;-66
2022/08/09 18:55:50;;;;;;;6.35;3.00;;;;;;;;;;6146010;23;20029;-66
2022/08/09 18:58:36;;;;;;;4.28;2.90;;;;;;;;;;6146424;23;20040;-57
2022/08/09 19:01:11;;;;;;;6.68;3.50;;;;;;;;;;6194506;23;20075;-45
2022/08/09 19:03:45;;;;;;;7.00;2.90;;;;;;;;;;6206527;23;20091;-46
2022/08/09 19:06:32;;;;;;;10.93;3.53;;;;;;;;;;6205719;23;20024;-44
2022/08/09 19:09:16;;;;;;;9.85;3.67;;;;;;;;;;6205617;23;20024;-48
2022/08/09 19:12:06;;;;;;;6.82;3.47;;;;;;;;;;6205322;23;20055;-46
2022/08/09 19:14:46;;;;;;;7.35;3.20;;;;;;;;;;6206330;23;20067;-46
2022/08/09 19:17:14;;;;;;;5.93;3.28;;;;;;;;;;6205373;23;20024;-62
2022/08/09 19:19:48;;;;;;;7.65;3.50;;;;;;;;;;6206329;23;20048;-44
2022/08/09 19:22:27;;;;;;;8.13;3.40;;;;;;;;;;6206461;23;20023;-45
2022/08/09 19:25:01;;;;;;;10.45;3.45;;;;;;;;;;6205060;23;20028;-45
2022/08/09 19:27:38;;;;;;;8.65;3.67;;;;;;;;;;6206759;23;20024;-45
2022/08/09 19:30:17;;;;;;;5.65;3.60;;;;;;;;;;6206234;23;20486;-45
2022/08/09 19:32:54;;;;;;;6.78;4.07;;;;;;;;;;6205928;23;20016;-48
2022/08/09 19:35:36;;;;;;;30.67;16.77;;;;;;;;;;6206633;23;20024;-56
2022/08/09 19:38:24;;;;;;;25.77;14.50;;;;;;;;;;6206154;23;20021;-62
2022/08/09 19:41:06;;;;;;;28.33;12.88;;;;;;;;;;6205823;23;20264;-63
2022/08/09 19:43:37;;;;;;;19.88;10.93;;;;;;;;;;6205148;23;20403;-63
2022/08/09 19:46:38;;;;;;;17.25;9.27;;;;;;;;;;6201665;23;20060;-62
2022/08/09 19:49:19;;;;;;;17.63;9.18;;;;;;;;;;6206084;23;20028;-62
2022/08/09 19:52:13;;;;;;;15.07;7.45;;;;;;;;;;6204888;23;20103;-63
2022/08/09 19:54:40;;;;;;;11.43;4.80;;;;;;;;;;6205497;23;20409;-58
2022/08/09 19:57:16;;;;;;;7.95;4.43;;;;;;;;;;6205813;23;20029;-57
2022/08/09 19:59:57;;;;;;;10.88;4.82;;;;;;;;;;6203453;23;20036;-58
2022/08/09 20:02:36;;;;;;;9.32;3.92;;;;;;;;;;6205415;23;20048;-56
2022/08/09 20:05:25;;;;;;;8.98;4.15;;;;;;;;;;6205604;23;20135;-57
2022/08/09 20:08:13;;;;;;;9.82;3.90;;;;;;;;;;6203889;23;20020;-57
2022/08/09 20:11:00;;;;;;;10.00;3.90;;;;;;;;;;6184361;23;20035;-53
2022/08/09 20:13:33;;;;;;;8.35;4.40;;;;;;;;;;6206937;23;20044;-45
2022/08/09 20:16:05;;;;;;;13.13;4.35;;;;;;;;;;6206312;23;20036;-62
2022/08/09 20:18:52;;;;;;;;;;;;;;;;;;6207149;23;20099;-62
2022/08/09 20:21:46;;;;;;;11.38;4.72;;;;;;;;;;6206452;23;19916;-62
2022/08/09 20:24:24;;;;;;;12.48;4.50;;;;;;;;;;6204801;23;20025;-62
2022/08/09 20:27:19;;;;;;;11.85;4.30;;;;;;;;;;6207404;23;20051;-61
2022/08/09 20:29:56;;;;;;;9.35;4.38;;;;;;;;;;6204643;23;20092;-58
2022/08/09 20:32:37;;;;;;;9.43;4.75;;;;;;;;;;6207304;23;20709;-56
2022/08/09 20:35:06;;;;;;;8.40;4.18;;;;;;;;;;6207584;23;20028;-57
2022/08/09 20:37:44;;;;;;;10.10;4.50;;;;;;;;;;6208641;23;20024;-55
2022/08/09 20:40:31;;;;;;;9.70;4.53;;;;;;;;;;6209098;23;20079;-55
2022/08/09 20:43:07;;;;;;;12.77;5.07;;;;;;;;;;6207124;23;20120;-54
2022/08/09 20:45:50;;;;;;;8.85;4.55;;;;;;;;;;6206221;23;20028;-56
2022/08/09 20:48:44;;;;;;;7.35;4.60;;;;;;;;;;6205405;23;20021;-61
2022/08/09 20:51:12;;;;;;;14.50;5.38;;;;;;;;;;6208757;23;20029;-56
2022/08/09 20:53:46;;;;;;;12.57;5.05;;;;;;;;;;6207258;23;20032;-55
2022/08/09 20:56:15;;;;;;;10.27;4.93;;;;;;;;;;6182666;23;20364;-56
2022/08/09 20:58:51;;;;;;;9.20;5.50;;;;;;;;;;6207821;23;20020;-57
2022/08/09 21:01:33;;;;;;;11.90;5.47;;;;;;;;;;6206069;23;20066;-58
2022/08/09 21:04:19;;;;;;;11.68;5.63;;;;;;;;;;6207008;23;20366;-58
2022/08/09 21:07:13;;;;;;;15.60;6.05;;;;;;;;;;6206823;23;20027;-46
2022/08/09 21:09:41;;;;;;;10.80;5.47;;;;;;;;;;6208210;23;20059;-55
2022/08/09 21:12:24;;;;;;;12.98;5.75;;;;;;;;;;6206723;23;20044;-57
2022/08/09 21:15:12;;;;;;;7.97;5.50;;;;;;;;;;6210240;23;20540;-56
2022/08/09 21:17:53;;;;;;;15.07;6.53;;;;;;;;;;6210041;23;20020;-56
2022/08/09 21:20:40;;;;;;;11.85;5.55;;;;;;;;;;6210902;23;20508;-55
2022/08/09 21:23:20;;;;;;;15.63;6.38;;;;;;;;;;6210807;23;20021;-55
2022/08/09 21:26:02;;;;;;;11.43;6.28;;;;;;;;;;6210139;23;20035;-64
2022/08/09 21:28:37;;;;;;;16.20;6.15;;;;;;;;;;6209877;23;20048;-58
2022/08/09 21:31:05;;;;;;;14.65;6.20;;;;;;;;;;6210730;23;20063;-57
2022/08/09 21:33:50;;;;;;;15.88;6.78;;;;;;;;;;6210349;23;20079;-57
2022/08/09 21:36:23;;;;;;;;;;;;;;;;;;6211072;23;20086;-56
2022/08/09 21:38:54;;;;;;;14.82;6.30;;;;;;;;;;6209338;23;19923;-55
2022/08/09 21:41:25;;;;;;;15.35;5.72;;;;;;;;;;6211337;23;20454;-55
2022/08/09 21:44:19;;;;;;;11.38;6.18;;;;;;;;;;6210969;23;20020;-47
2022/08/09 21:47:01;;;;;;;15.93;6.28;;;;;;;;;;6211142;23;20032;-45
2022/08/09 21:49:37;;;;;;;16.83;6.85;;;;;;;;;;6185844;23;20027;-44
2022/08/09 21:52:10;;;;;;;15.27;7.03;;;;;;;;;;6210761;23;20031;-44
2022/08/09 21:54:49;;;;;;;16.67;7.20;;;;;;;;;;6210891;23;20107;-44
2022/08/09 21:57:26;;;;;;;17.73;6.78;;;;;;;;;;6211123;23;20017;-44
2022/08/09 22:00:34;;;;;;;20.25;7.25;;;;;;;;;;6209159;23;20136;-46
2022/08/09 22:03:04;;;;;;;15.00;7.13;;;;;;;;;;6210956;23;20024;-46
2022/08/09 22:05:46;;;;;;;14.77;7.28;;;;;;;;;;6210381;23;20028;-45
2022/08/09 22:08:19;;;;;;;18.85;7.93;;;;;;;;;;6210068;23;20398;-46
2022/08/09 22:10:57;;;;;;;13.27;7.10;;;;;;;;;;6211532;23;20103;-46
2022/08/09 22:13:48;;;;;;;15.85;7.15;;;;;;;;;;6210320;23;20063;-47
2022/08/09 22:16:24;;;;;;;18.65;7.07;;;;;;;;;;6211085;23;20394;-43
2022/08/09 22:18:51;;;;;;;13.70;6.45;;;;;;;;;;6209779;23;20600;-46
2022/08/09 22:21:25;;;;;;;20.23;7.38;;;;;;;;;;6210162;23;20021;-47
2022/08/09 22:24:16;;;;;;;16.10;6.57;;;;;;;;;;6210563;23;20060;-63
2022/08/09 22:26:51;;;;;;;17.10;6.78;;;;;;;;;;6210482;23;20070;-62
2022/08/09 22:29:25;;;;;;;16.70;7.32;;;;;;;;;;6210049;23;20027;-63
2022/08/09 22:32:12;;;;;;;16.98;7.80;;;;;;;;;;6210290;23;20354;-62
2022/08/09 22:34:57;;;;;;;23.65;7.38;;;;;;;;;;6210117;23;20028;-62
2022/08/09 22:37:45;;;;;;;16.25;6.90;;;;;;;;;;6209598;23;20541;-62
2022/08/09 22:40:33;;;;;;;23.33;7.03;;;;;;;;;;6210446;23;20031;-64
2022/08/09 22:43:01;;;;;;;20.00;7.72;;;;;;;;;;6210181;23;20533;-47
2022/08/09 22:45:55;;;;;;;16.00;7.25;;;;;;;;;;6210067;23;20021;-45
2022/08/09 22:48:42;;;;;;;18.27;7.95;;;;;;;;;;6210014;23;20064;-44
2022/08/09 22:51:17;;;;;;;20.52;8.27;;;;;;;;;;6210865;23;20052;-44
2022/08/09 22:53:50;;;;;;;15.45;7.03;;;;;;;;;;6184432;23;20035;-44
2022/08/09 22:56:29;;;;;;;21.13;8.00;;;;;;;;;;6210374;23;20031;-53
2022/08/09 22:59:04;;;;;;;18.42;8.05;;;;;;;;;;6209113;23;20059;-63
2022/08/09 23:02:04;;;;;;;15.75;7.97;;;;;;;;;;6208850;23;20075;-57
2022/08/09 23:04:31;;;;;;;14.93;7.97;;;;;;;;;;6209223;23;20020;-54
2022/08/09 23:10:26;;;;;;;23.25;7.72;;;;;;;;;;6210488;23;20103;-57
2022/08/09 23:13:00;;;;;;;17.63;8.13;;;;;;;;;;6210786;23;20029;-55
2022/08/09 23:15:28;;;;;;;17.98;7.80;;;;;;;;;;6210951;23;20486;-63
2022/08/09 23:17:55;;;;;;;15.82;7.53;;;;;;;;;;6209602;23;20393;-47
2022/08/09 23:20:30;;;;;;;16.85;7.63;;;;;;;;;;6209215;23;20028;-47
2022/08/09 23:22:57;;;;;;;22.98;8.13;;;;;;;;;;6208893;23;20086;-49
2022/08/09 23:25:24;;;;;;;13.98;7.13;;;;;;;;;;6210312;23;20350;-50
2022/08/09 23:27:59;;;;;;;16.05;7.28;;;;;;;;;;6208704;23;20059;-47
2022/08/09 23:30:42;;;;;;;22.13;8.38;;;;;;;;;;6210145;23;20075;-48
2022/08/09 23:33:24;;;;;;;24.40;8.52;;;;;;;;;;6209206;23;20056;-56
2022/08/09 23:35:52;;;;;;;23.13;8.63;;;;;;;;;;6208698;23;20386;-48
2022/08/09 23:38:33;;;;;;;18.60;9.18;;;;;;;;;;6209015;23;20482;-48
2022/08/09 23:41:01;;;;;;;17.17;8.73;;;;;;;;;;6208382;23;20027;-46
2022/08/09 23:43:35;;;;;;;27.13;8.98;;;;;;;;;;6183898;23;20358;-45
2022/08/09 23:46:03;;;;;;;22.33;8.68;;;;;;;;;;6210178;23;20071;-46
2022/08/09 23:48:30;;;;;;;17.67;8.20;;;;;;;;;;6209799;23;20044;-46
2022/08/09 23:51:03;;;;;;;22.35;8.27;;;;;;;;;;6209516;23;20021;-45
2022/08/09 23:53:33;;;;;;;22.42;8.70;;;;;;;;;;6209932;23;20055;-63
2022/08/09 23:56:04;;;;;;;20.75;8.65;;;;;;;;;;6209707;23;20099;-45
2022/08/09 23:58:39;;;;;;;21.95;9.20;;;;;;;;;;6207992;23;20031;-45
